createdAt,value
2019-02-27T00:01:49.926Z,3.30
2019-02-27T00:04:52.517Z,3.26
2019-02-27T00:07:55.000Z,3.23
2019-02-27T00:10:57.258Z,3.22
2019-02-27T00:13:59.134Z,3.17
2019-02-27T00:17:01.051Z,3.15
2019-02-27T00:20:05.454Z,3.15
2019-02-27T00:23:08.662Z,3.13
2019-02-27T00:26:10.570Z,3.09
2019-02-27T00:29:12.482Z,3.06
2019-02-27T00:32:15.754Z,3.05
2019-02-27T00:35:19.325Z,3.03
2019-02-27T00:38:22.744Z,2.99
2019-02-27T00:41:25.139Z,2.93
2019-02-27T00:44:27.097Z,2.90
2019-02-27T00:47:29.112Z,2.86
2019-02-27T00:50:31.017Z,2.85
2019-02-27T00:53:32.905Z,2.85
2019-02-27T00:56:34.801Z,2.83
2019-02-27T00:59:36.776Z,2.78
2019-02-27T01:02:38.664Z,2.79
2019-02-27T01:05:41.128Z,2.77
2019-02-27T01:08:43.945Z,2.74
2019-02-27T01:11:46.010Z,2.70
2019-02-27T01:14:47.897Z,2.67
2019-02-27T01:17:49.819Z,2.63
2019-02-27T01:20:51.744Z,2.62
2019-02-27T01:23:54.113Z,2.58
2019-02-27T01:26:56.014Z,2.55
2019-02-27T01:29:58.350Z,2.53
2019-02-27T01:33:03.935Z,2.46
2019-02-27T01:36:03.970Z,2.38
2019-02-27T01:39:09.051Z,2.33
2019-02-27T01:42:10.989Z,2.25
2019-02-27T01:45:14.388Z,2.17
2019-02-27T01:48:16.317Z,2.01
2019-02-27T01:51:18.303Z,1.90
2019-02-27T01:54:20.240Z,1.86
2019-02-27T01:57:22.157Z,1.84
2019-02-27T02:00:24.102Z,1.83
2019-02-27T02:03:25.974Z,1.77
2019-02-27T02:06:31.944Z,1.79
2019-02-27T02:09:33.801Z,1.76
2019-02-27T02:12:35.747Z,1.76
2019-02-27T02:15:50.222Z,1.75
2019-02-27T02:19:12.310Z,1.72
2019-02-27T02:22:26.683Z,1.68
2019-02-27T02:25:41.500Z,1.62
2019-02-27T02:29:03.777Z,1.60
2019-02-27T02:32:27.378Z,1.56
2019-02-27T02:35:35.715Z,1.53
2019-02-27T02:38:47.258Z,1.53
2019-02-27T02:42:24.273Z,1.51
2019-02-27T02:45:58.304Z,1.49
2019-02-27T02:49:07.850Z,1.48
2019-02-27T02:52:14.265Z,1.46
2019-02-27T02:55:22.901Z,1.47
2019-02-27T02:58:37.645Z,1.46
2019-02-27T03:01:49.377Z,1.47
2019-02-27T03:04:56.066Z,1.44
2019-02-27T03:08:04.496Z,1.44
2019-02-27T03:11:19.020Z,1.40
2019-02-27T03:14:25.945Z,1.41
2019-02-27T03:18:02.255Z,1.40
2019-02-27T03:21:16.617Z,1.36
2019-02-27T03:24:28.216Z,1.35
2019-02-27T03:27:39.978Z,1.38
2019-02-27T03:30:48.390Z,1.37
2019-02-27T03:33:54.051Z,1.38
2019-02-27T03:37:02.196Z,1.40
2019-02-27T03:40:11.808Z,1.40
2019-02-27T03:43:17.569Z,1.39
2019-02-27T03:46:31.865Z,1.42
2019-02-27T03:50:01.709Z,1.43
2019-02-27T03:53:28.500Z,1.42
2019-02-27T03:56:46.116Z,1.41
2019-02-27T04:00:00.579Z,1.40
2019-02-27T04:03:09.062Z,1.41
2019-02-27T04:06:21.173Z,1.38
2019-02-27T04:09:21.459Z,1.39
2019-02-27T04:12:23.566Z,1.35
2019-02-27T04:15:25.512Z,1.34
2019-02-27T04:18:28.431Z,1.33
2019-02-27T04:21:30.604Z,1.32
2019-02-27T04:24:32.540Z,1.28
2019-02-27T04:27:34.660Z,1.26
2019-02-27T04:30:36.572Z,1.24
2019-02-27T04:33:38.495Z,1.22
2019-02-27T04:36:40.368Z,1.22
2019-02-27T04:39:42.310Z,1.23
2019-02-27T04:42:44.218Z,1.23
2019-02-27T04:45:46.779Z,1.24
2019-02-27T04:48:49.821Z,1.26
2019-02-27T04:51:51.757Z,1.26
2019-02-27T04:54:53.715Z,1.26
2019-02-27T04:57:55.612Z,1.31
2019-02-27T05:00:59.349Z,1.38
2019-02-27T05:04:02.174Z,1.47
2019-02-27T05:07:04.359Z,1.55
2019-02-27T05:10:07.961Z,1.65
2019-02-27T05:13:09.971Z,1.72
2019-02-27T05:16:14.117Z,1.79
2019-02-27T05:19:15.688Z,1.82
2019-02-27T05:22:17.621Z,1.82
2019-02-27T05:25:19.486Z,1.85
2019-02-27T05:28:21.430Z,1.89
2019-02-27T05:31:23.342Z,1.96
2019-02-27T05:34:25.320Z,1.97
2019-02-27T05:37:27.295Z,1.98
2019-02-27T05:40:29.875Z,1.98
2019-02-27T05:43:31.741Z,1.98
2019-02-27T05:46:37.985Z,2.00
2019-02-27T05:49:37.646Z,2.03
2019-02-27T05:52:39.643Z,2.04
2019-02-27T05:55:41.595Z,2.14
2019-02-27T05:58:43.498Z,2.10
2019-02-27T06:01:45.443Z,2.01
2019-02-27T06:04:47.358Z,1.96
2019-02-27T06:07:49.510Z,1.99
2019-02-27T06:10:55.004Z,2.06
2019-02-27T06:13:55.694Z,1.98
2019-02-27T06:16:57.570Z,1.99
2019-02-27T06:19:59.490Z,1.98
2019-02-27T06:23:04.104Z,1.95
2019-02-27T06:26:05.316Z,2.03
2019-02-27T06:29:07.251Z,2.08
2019-02-27T06:32:11.915Z,2.11
2019-02-27T06:35:14.277Z,2.21
2019-02-27T06:38:16.171Z,2.32
2019-02-27T06:41:18.303Z,2.40
2019-02-27T06:44:20.397Z,2.40
2019-02-27T06:47:22.320Z,2.45
2019-02-27T06:50:25.454Z,2.55
2019-02-27T06:53:28.285Z,2.59
2019-02-27T06:56:30.260Z,2.68
2019-02-27T06:59:32.084Z,2.77
2019-02-27T07:02:34.182Z,2.85
2019-02-27T07:05:36.103Z,2.93
2019-02-27T07:08:38.715Z,3.03
2019-02-27T07:11:44.885Z,3.11
2019-02-27T07:14:44.876Z,3.12
2019-02-27T07:17:46.905Z,3.10
2019-02-27T07:20:48.896Z,3.14
2019-02-27T07:23:50.839Z,3.23
2019-02-27T07:26:54.377Z,3.44
2019-02-27T07:29:56.304Z,3.57
2019-02-27T07:32:58.238Z,3.73
2019-02-27T07:36:03.310Z,3.83
2019-02-27T07:39:04.990Z,3.94
2019-02-27T07:42:08.561Z,3.97
2019-02-27T07:45:18.808Z,4.13
2019-02-27T07:48:20.887Z,4.24
2019-02-27T07:51:23.366Z,4.39
2019-02-27T07:54:28.801Z,4.56
2019-02-27T07:57:29.742Z,4.79
2019-02-27T08:00:31.684Z,4.98
2019-02-27T08:03:33.661Z,5.14
2019-02-27T08:06:37.736Z,5.37
2019-02-27T08:09:39.520Z,5.50
2019-02-27T08:12:41.436Z,5.56
2019-02-27T08:15:43.387Z,5.70
2019-02-27T08:18:45.265Z,5.77
2019-02-27T08:21:47.282Z,5.88
2019-02-27T08:24:49.299Z,5.96
2019-02-27T08:27:51.674Z,6.02
2019-02-27T08:30:53.571Z,6.15
2019-02-27T08:33:55.505Z,6.24
2019-02-27T08:36:57.468Z,6.35
2019-02-27T08:39:59.404Z,6.48
2019-02-27T08:43:01.270Z,6.67
2019-02-27T08:46:03.227Z,6.78
2019-02-27T08:49:05.149Z,6.87
2019-02-27T08:52:08.497Z,6.99
2019-02-27T08:55:19.800Z,7.22
2019-02-27T08:58:17.715Z,7.37
2019-02-27T09:01:21.759Z,7.58
2019-02-27T09:04:23.473Z,7.78
2019-02-27T09:07:25.411Z,7.97
2019-02-27T09:10:30.518Z,8.11
2019-02-27T09:13:31.130Z,8.26
2019-02-27T09:16:33.035Z,8.41
2019-02-27T09:19:34.960Z,8.72
2019-02-27T09:22:37.468Z,9.09
2019-02-27T09:25:40.150Z,9.33
2019-02-27T09:28:44.536Z,9.38
2019-02-27T09:31:50.718Z,9.58
2019-02-27T09:34:50.028Z,9.67
2019-02-27T09:37:52.119Z,9.73
2019-02-27T09:40:54.134Z,10.00
2019-02-27T09:43:58.634Z,9.99
2019-02-27T09:46:59.966Z,9.80
2019-02-27T09:50:01.827Z,9.62
2019-02-27T09:53:04.437Z,9.52
2019-02-27T09:56:06.525Z,9.61
2019-02-27T09:59:08.439Z,9.65
2019-02-27T10:02:12.450Z,9.67
2019-02-27T10:05:14.176Z,9.71
2019-02-27T10:08:16.238Z,9.82
2019-02-27T10:11:19.550Z,9.90
2019-02-27T10:14:21.896Z,10.00
2019-02-27T10:17:23.794Z,10.03
2019-02-27T10:20:25.775Z,10.11
2019-02-27T10:23:30.450Z,10.18
2019-02-27T10:26:31.721Z,10.23
2019-02-27T10:29:34.639Z,10.33
2019-02-27T10:32:37.254Z,10.41
2019-02-27T10:35:39.198Z,10.52
2019-02-27T10:38:41.985Z,10.62
2019-02-27T10:41:44.907Z,10.69
2019-02-27T10:44:47.069Z,10.80
2019-02-27T10:47:49.034Z,10.88
2019-02-27T10:50:51.007Z,10.95
2019-02-27T10:53:52.993Z,11.04
2019-02-27T10:56:56.350Z,11.13
2019-02-27T10:59:58.858Z,11.18
2019-02-27T11:03:00.829Z,11.27
2019-02-27T11:06:02.763Z,11.31
2019-02-27T11:09:07.516Z,11.37
2019-02-27T11:12:11.283Z,11.41
2019-02-27T11:15:23.372Z,11.49
2019-02-27T11:18:25.332Z,11.55
2019-02-27T11:21:27.257Z,11.63
2019-02-27T11:24:29.178Z,11.69
2019-02-27T11:27:31.132Z,11.73
2019-02-27T11:30:40.739Z,11.81
2019-02-27T11:33:42.657Z,11.89
2019-02-27T11:36:44.676Z,11.93
2019-02-27T11:39:46.543Z,12.01
2019-02-27T11:42:48.443Z,12.09
2019-02-27T11:45:50.434Z,12.10
2019-02-27T11:48:52.347Z,12.15
2019-02-27T11:51:56.997Z,12.19
2019-02-27T11:54:59.466Z,12.26
2019-02-27T11:58:05.319Z,12.31
2019-02-27T12:01:06.607Z,12.35
2019-02-27T12:04:08.563Z,12.40
2019-02-27T12:07:12.241Z,12.45
2019-02-27T12:10:16.410Z,12.44
2019-02-27T12:13:18.340Z,12.48
2019-02-27T12:16:20.248Z,12.49
2019-02-27T12:19:22.170Z,12.56
2019-02-27T12:22:24.120Z,12.62
2019-02-27T12:25:28.964Z,12.71
2019-02-27T12:28:29.876Z,12.70
2019-02-27T12:31:31.788Z,12.72
2019-02-27T12:34:34.074Z,12.73
2019-02-27T12:37:37.766Z,12.74
2019-02-27T12:40:39.693Z,12.76
2019-02-27T12:43:42.407Z,12.80
2019-02-27T12:46:45.331Z,12.83
2019-02-27T12:49:47.350Z,12.87
2019-02-27T12:52:49.557Z,12.86
2019-02-27T12:55:51.645Z,12.91
2019-02-27T12:58:58.352Z,12.93
2019-02-27T13:01:57.480Z,12.95
2019-02-27T13:04:59.417Z,13.01
2019-02-27T13:08:01.547Z,13.03
2019-02-27T13:11:05.236Z,13.08
2019-02-27T13:14:07.478Z,13.13
2019-02-27T13:17:09.441Z,13.18
2019-02-27T13:20:17.019Z,13.22
2019-02-27T13:23:20.514Z,13.24
2019-02-27T13:26:22.461Z,13.27
2019-02-27T13:29:24.453Z,13.27
2019-02-27T13:32:27.578Z,13.28
2019-02-27T13:35:29.729Z,13.27
2019-02-27T13:38:31.713Z,13.25
2019-02-27T13:41:33.660Z,13.27
2019-02-27T13:44:35.673Z,13.25
2019-02-27T13:47:37.596Z,13.25
2019-02-27T13:50:39.609Z,13.25
2019-02-27T13:53:41.555Z,13.22
2019-02-27T13:56:43.569Z,13.21
2019-02-27T13:59:45.639Z,13.23
2019-02-27T14:02:47.798Z,13.29
2019-02-27T14:05:49.755Z,13.27
2019-02-27T14:08:51.605Z,13.29
2019-02-27T14:11:53.523Z,13.33
2019-02-27T14:14:55.941Z,13.32
2019-02-27T14:17:58.219Z,13.31
2019-02-27T14:21:01.644Z,13.31
2019-02-27T14:24:04.664Z,13.26
2019-02-27T14:27:06.752Z,13.24
2019-02-27T14:30:15.392Z,13.24
2019-02-27T14:33:19.394Z,13.24
2019-02-27T14:36:21.973Z,13.28
2019-02-27T14:39:23.992Z,13.27
2019-02-27T14:42:25.995Z,13.29
2019-02-27T14:45:27.890Z,13.28
2019-02-27T14:48:30.030Z,13.26
2019-02-27T14:51:31.953Z,13.27
2019-02-27T14:54:33.927Z,13.26
2019-02-27T14:57:37.326Z,13.25
2019-02-27T15:00:41.012Z,13.27
2019-02-27T15:03:43.206Z,13.26
2019-02-27T15:06:46.095Z,13.23
2019-02-27T15:09:48.289Z,13.13
2019-02-27T15:12:53.861Z,13.07
2019-02-27T15:15:54.052Z,13.05
2019-02-27T15:18:56.144Z,13.01
2019-02-27T15:21:58.061Z,12.95
2019-02-27T15:25:00.159Z,12.93
2019-02-27T15:28:02.313Z,12.89
2019-02-27T15:31:04.481Z,12.82
2019-02-27T15:34:11.760Z,12.77
2019-02-27T15:37:11.036Z,12.69
2019-02-27T15:40:15.724Z,12.66
2019-02-27T15:43:18.174Z,12.62
2019-02-27T15:46:21.937Z,12.58
2019-02-27T15:49:24.698Z,12.52
2019-02-27T15:52:26.741Z,12.48
2019-02-27T15:55:32.849Z,12.43
2019-02-27T15:58:32.887Z,12.36
2019-02-27T16:01:35.000Z,12.33
2019-02-27T16:04:36.900Z,12.28
2019-02-27T16:07:38.988Z,12.23
2019-02-27T16:10:43.666Z,12.12
2019-02-27T16:13:44.853Z,12.05
2019-02-27T16:16:47.626Z,11.93
2019-02-27T16:19:50.228Z,11.86
2019-02-27T16:22:52.139Z,11.79
2019-02-27T16:25:56.434Z,11.72
2019-02-27T16:28:58.096Z,11.64
2019-02-27T16:32:00.108Z,11.54
2019-02-27T16:35:07.899Z,11.45
2019-02-27T16:38:08.660Z,11.34
2019-02-27T16:41:11.276Z,11.25
2019-02-27T16:44:13.389Z,11.14
2019-02-27T16:47:19.419Z,11.01
2019-02-27T16:50:24.789Z,10.90
2019-02-27T16:53:26.680Z,10.77
2019-02-27T16:56:28.581Z,10.68
2019-02-27T16:59:30.615Z,10.61
2019-02-27T17:02:35.451Z,10.52
2019-02-27T17:05:36.397Z,10.44
2019-02-27T17:08:38.464Z,10.34
2019-02-27T17:11:40.430Z,10.20
2019-02-27T17:14:42.391Z,10.09
2019-02-27T17:17:44.333Z,9.87
2019-02-27T17:20:47.299Z,9.77
2019-02-27T17:23:49.524Z,9.65
2019-02-27T17:26:51.530Z,9.57
2019-02-27T17:29:53.644Z,9.47
2019-02-27T17:32:56.516Z,9.34
2019-02-27T17:35:59.320Z,9.22
2019-02-27T17:39:01.989Z,9.09
2019-02-27T17:42:06.287Z,8.86
2019-02-27T17:45:14.582Z,8.67
2019-02-27T17:48:16.597Z,8.62
2019-02-27T17:51:18.624Z,8.48
2019-02-27T17:54:22.349Z,8.42
2019-02-27T17:57:28.016Z,8.27
2019-02-27T18:00:32.184Z,8.21
2019-02-27T18:03:36.632Z,8.15
2019-02-27T18:06:38.119Z,8.11
2019-02-27T18:09:42.984Z,8.01
2019-02-27T18:12:44.929Z,7.94
2019-02-27T18:15:46.894Z,7.83
2019-02-27T18:18:51.282Z,7.72
2019-02-27T18:21:53.205Z,7.57
2019-02-27T18:24:55.192Z,7.49
2019-02-27T18:27:59.589Z,7.38
2019-02-27T18:31:05.193Z,7.30
2019-02-27T18:34:07.303Z,7.19
2019-02-27T18:37:09.282Z,7.12
2019-02-27T18:40:18.220Z,7.05
2019-02-27T18:43:20.162Z,7.03
2019-02-27T18:46:24.854Z,7.02
2019-02-27T18:49:27.085Z,6.97
2019-02-27T18:52:29.024Z,6.93
2019-02-27T18:55:32.182Z,6.89
2019-02-27T18:58:35.781Z,6.91
2019-02-27T19:01:37.873Z,6.90
2019-02-27T19:04:39.876Z,6.86
2019-02-27T19:07:44.377Z,6.83
2019-02-27T19:10:46.375Z,6.80
2019-02-27T19:13:48.331Z,6.72
2019-02-27T19:16:52.110Z,6.63
2019-02-27T19:19:55.698Z,6.52
2019-02-27T19:23:00.349Z,6.42
2019-02-27T19:26:02.678Z,6.39
2019-02-27T19:29:05.845Z,6.36
2019-02-27T19:32:09.259Z,6.34
2019-02-27T19:35:11.651Z,6.33
2019-02-27T19:38:13.873Z,6.28
2019-02-27T19:41:22.675Z,6.27
2019-02-27T19:44:29.249Z,6.28
2019-02-27T19:47:34.105Z,6.23
2019-02-27T19:50:37.217Z,6.22
2019-02-27T19:53:39.625Z,6.22
2019-02-27T19:56:43.955Z,6.17
2019-02-27T19:59:46.075Z,6.14
2019-02-27T20:02:48.260Z,6.11
2019-02-27T20:05:53.260Z,6.05
2019-02-27T20:08:56.092Z,5.97
2019-02-27T20:11:59.324Z,5.90
2019-02-27T20:15:08.342Z,5.84
2019-02-27T20:18:13.984Z,5.79
2019-02-27T20:21:19.692Z,5.71
2019-02-27T20:24:21.596Z,5.58
2019-02-27T20:27:25.887Z,5.46
2019-02-27T20:30:30.156Z,5.37
2019-02-27T20:33:34.261Z,5.31
2019-02-27T20:36:35.996Z,5.22
2019-02-27T20:39:39.772Z,5.11
2019-02-27T20:42:50.041Z,5.01
2019-02-27T20:45:50.073Z,4.90
2019-02-27T20:48:52.618Z,4.74
2019-02-27T20:51:54.607Z,4.65
2019-02-27T20:54:58.919Z,4.60
2019-02-27T20:58:02.230Z,4.55
2019-02-27T21:01:10.030Z,4.52
2019-02-27T21:04:11.350Z,4.42
2019-02-27T21:07:21.885Z,4.36
2019-02-27T21:10:25.117Z,4.31
2019-02-27T21:13:28.640Z,4.29
2019-02-27T21:16:30.663Z,4.29
2019-02-27T21:19:33.844Z,4.25
2019-02-27T21:22:36.429Z,4.23
2019-02-27T21:25:38.435Z,4.17
2019-02-27T21:28:40.507Z,4.12
2019-02-27T21:31:42.423Z,4.18
2019-02-27T21:34:44.393Z,4.22
2019-02-27T21:37:50.852Z,4.25
2019-02-27T21:40:53.540Z,4.26
2019-02-27T21:43:56.651Z,4.22
2019-02-27T21:46:59.402Z,4.21
2019-02-27T21:50:03.667Z,4.20
2019-02-27T21:53:06.360Z,4.19
2019-02-27T21:56:08.202Z,4.17
2019-02-27T21:59:10.149Z,4.16
2019-02-27T22:02:12.056Z,4.13
2019-02-27T22:05:18.500Z,4.09
2019-02-27T22:08:17.998Z,3.99
2019-02-27T22:11:20.009Z,3.93
2019-02-27T22:14:24.951Z,3.88
2019-02-27T22:17:26.982Z,3.81
2019-02-27T22:20:28.867Z,3.78
2019-02-27T22:23:30.769Z,3.73
2019-02-27T22:26:34.175Z,3.72
2019-02-27T22:29:36.614Z,3.66
2019-02-27T22:32:38.559Z,3.58
2019-02-27T22:35:40.495Z,3.50
2019-02-27T22:38:42.446Z,3.46
2019-02-27T22:41:44.373Z,3.41
2019-02-27T22:44:48.157Z,3.30
2019-02-27T22:47:50.294Z,3.29
2019-02-27T22:50:53.327Z,3.27
2019-02-27T22:53:55.219Z,3.27
2019-02-27T22:56:57.174Z,3.30
2019-02-27T22:59:59.064Z,3.27
2019-02-27T23:03:01.127Z,3.27
2019-02-27T23:06:04.292Z,3.26
2019-02-27T23:09:08.224Z,3.22
2019-02-27T23:12:10.939Z,3.21
2019-02-27T23:15:13.119Z,3.18
2019-02-27T23:18:15.133Z,3.13
2019-02-27T23:21:17.373Z,3.11
2019-02-27T23:24:19.305Z,3.09
2019-02-27T23:27:21.304Z,3.08
2019-02-27T23:30:23.212Z,3.07
2019-02-27T23:33:25.069Z,3.07
2019-02-27T23:36:27.019Z,3.09
2019-02-27T23:39:28.995Z,3.05
2019-02-27T23:42:31.796Z,3.04
2019-02-27T23:45:33.722Z,3.06
2019-02-27T23:48:36.741Z,3.01
2019-02-27T23:51:38.908Z,2.96
2019-02-27T23:54:40.903Z,2.88
2019-02-27T23:57:42.885Z,2.86
